ENTO/TRF METAR and TAF weather

Enter ICAO airport designator
Station Type Date Time Source
ENTO METAR 2022/07/03 15:20 UTC NOAA

ENTO 031520Z 20009KT 170V230 9999 BKN029TCU 19/12 Q1014 NOSIG


Station Type Date Time Source
ENTO Decoded METAR 2022/07/03 15:20 UTC NOAA

Torp, Norway (ENTO) 59-12N 010-16E 88M
Jul 03, 2022 - 11:20 AM EDT / 2022.07.03 1520 UTC
Wind: from the SSW (200 degrees) at 10 MPH (9 KT) (direction variable):0
Visibility: greater than 7 mile(s):0
Sky conditions: mostly cloudy
Weather: Towering cumulus clouds observed
Temperature: 66 F (19 C)
Dew Point: 53 F (12 C)
Relative Humidity: 63%
Pressure (altimeter): 29.94 in. Hg (1014 hPa)
ob: ENTO 031520Z 20009KT 170V230 9999 BKN029TCU 19/12 Q1014 NOSIG
cycle: 15

Station Type Date Time Source
ENTO TAF 2022/07/03 12:57 UTC NOAA

TAF ENTO 031100Z 0312/0412 18015KT 9999 BKN030
TEMPO 0312/0316 SHRA SCT020CB
TEMPO 0323/0404 VRB03KT

Example: see airport list